createdAt,value
2018-09-03T00:00:55.326Z,88.96
2018-09-03T00:03:24.788Z,89.55
2018-09-03T00:05:54.921Z,89.47
2018-09-03T00:08:24.465Z,88.93
2018-09-03T00:10:54.065Z,89.18
2018-09-03T00:13:23.530Z,89.16
2018-09-03T00:15:53.552Z,89.53
2018-09-03T00:18:23.027Z,88.50
2018-09-03T00:20:52.483Z,88.84
2018-09-03T00:23:23.540Z,89.15
2018-09-03T00:25:53.036Z,89.01
2018-09-03T00:28:23.511Z,88.67
2018-09-03T00:30:56.989Z,89.22
2018-09-03T00:33:31.579Z,89.02
2018-09-03T00:36:06.130Z,88.61
2018-09-03T00:38:40.921Z,88.83
2018-09-03T00:41:16.616Z,88.86
2018-09-03T00:43:51.162Z,88.40
2018-09-03T00:46:25.854Z,88.51
2018-09-03T00:48:55.237Z,89.45
2018-09-03T00:51:25.069Z,89.56
2018-09-03T00:53:54.554Z,89.90
2018-09-03T00:56:25.429Z,88.93
2018-09-03T00:58:54.897Z,90.01
2018-09-03T01:01:24.465Z,90.16
2018-09-03T01:03:54.009Z,90.16
2018-09-03T01:06:23.501Z,91.02
2018-09-03T01:08:52.962Z,90.80
2018-09-03T01:11:24.872Z,90.18
2018-09-03T01:13:55.750Z,90.50
2018-09-03T01:16:25.946Z,91.19
2018-09-03T01:18:55.989Z,90.58
2018-09-03T01:21:26.729Z,91.05
2018-09-03T01:23:56.536Z,91.79
2018-09-03T01:26:28.377Z,92.03
2018-09-03T01:28:59.751Z,91.91
2018-09-03T01:31:31.354Z,91.85
2018-09-03T01:34:01.116Z,93.14
2018-09-03T01:36:30.675Z,93.90
2018-09-03T01:39:00.791Z,93.45
2018-09-03T01:41:30.711Z,92.92
2018-09-03T01:44:00.734Z,92.82
2018-09-03T01:46:31.519Z,93.12
2018-09-03T01:49:00.933Z,93.19
2018-09-03T01:51:30.967Z,93.41
2018-09-03T01:54:00.572Z,92.71
2018-09-03T01:56:30.006Z,93.47
2018-09-03T01:58:59.492Z,92.82
2018-09-03T02:01:28.946Z,93.01
2018-09-03T02:03:59.475Z,92.67
2018-09-03T02:06:29.278Z,92.99
2018-09-03T02:08:58.745Z,93.88
2018-09-03T02:11:28.573Z,93.54
2018-09-03T02:13:58.675Z,93.35
2018-09-03T02:16:28.554Z,93.16
2018-09-03T02:18:59.789Z,92.60
2018-09-03T02:21:30.405Z,93.15
2018-09-03T02:23:59.930Z,92.94
2018-09-03T02:26:29.923Z,92.51
2018-09-03T02:28:59.363Z,93.10
2018-09-03T02:31:29.143Z,93.14
2018-09-03T02:33:58.640Z,93.74
2018-09-03T02:36:28.157Z,93.68
2018-09-03T02:38:57.602Z,94.08
2018-09-03T02:41:27.487Z,94.76
2018-09-03T02:43:57.027Z,94.47
2018-09-03T02:46:27.941Z,94.61
2018-09-03T02:48:57.520Z,95.55
2018-09-03T02:51:26.990Z,94.91
2018-09-03T02:53:56.454Z,95.69
2018-09-03T02:56:26.585Z,96.69
2018-09-03T02:58:56.078Z,95.85
2018-09-03T03:01:25.541Z,96.10
2018-09-03T03:03:55.102Z,95.96
2018-09-03T03:06:24.565Z,96.10
2018-09-03T03:08:54.156Z,95.83
2018-09-03T03:11:25.615Z,95.72
2018-09-03T03:13:55.401Z,96.08
2018-09-03T03:16:25.946Z,96.21
2018-09-03T03:18:55.988Z,96.38
2018-09-03T03:21:25.519Z,96.95
2018-09-03T03:23:55.062Z,97.27
2018-09-03T03:26:24.486Z,97.18
2018-09-03T03:28:53.982Z,97.81
2018-09-03T03:31:24.813Z,97.40
2018-09-03T03:33:54.239Z,97.59
2018-09-03T03:36:24.078Z,98.45
2018-09-03T03:38:53.544Z,98.72
2018-09-03T03:41:23.004Z,98.26
2018-09-03T03:43:52.480Z,98.33
2018-09-03T03:46:21.953Z,97.89
2018-09-03T03:48:52.801Z,97.68
2018-09-03T03:51:22.563Z,97.67
2018-09-03T03:53:52.059Z,97.77
2018-09-03T03:56:21.567Z,97.91
2018-09-03T03:58:51.973Z,96.86
2018-09-03T04:01:22.580Z,97.17
2018-09-03T04:03:53.191Z,97.04
2018-09-03T04:06:22.733Z,97.09
2018-09-03T04:08:52.365Z,97.47
2018-09-03T04:11:21.832Z,97.31
2018-09-03T04:13:51.734Z,97.01
2018-09-03T04:16:21.969Z,97.60
2018-09-03T04:18:51.527Z,97.86
2018-09-03T04:21:21.041Z,97.78
2018-09-03T04:23:50.588Z,97.13
2018-09-03T04:26:20.056Z,96.90
2018-09-03T04:28:51.766Z,97.44
2018-09-03T04:31:21.345Z,97.16
2018-09-03T04:33:51.256Z,97.78
2018-09-03T04:36:20.738Z,97.47
2018-09-03T04:38:50.582Z,97.63
2018-09-03T04:41:20.091Z,97.57
2018-09-03T04:43:49.560Z,97.91
2018-09-03T04:46:19.114Z,97.52
2018-09-03T04:48:49.139Z,97.08
2018-09-03T04:51:18.766Z,97.92
2018-09-03T04:53:48.284Z,97.42
2018-09-03T04:56:18.596Z,97.11
2018-09-03T04:58:48.249Z,97.16
2018-09-03T05:01:18.769Z,96.65
2018-09-03T05:03:48.697Z,97.62
2018-09-03T05:06:19.157Z,96.47
2018-09-03T05:08:48.733Z,96.04
2018-09-03T05:11:18.314Z,96.77
2018-09-03T05:13:47.871Z,95.66
2018-09-03T05:16:17.363Z,96.39
2018-09-03T05:18:47.037Z,95.77
2018-09-03T05:21:16.494Z,94.76
2018-09-03T05:23:45.940Z,95.34
2018-09-03T05:26:15.441Z,95.40
2018-09-03T05:28:45.398Z,94.77
2018-09-03T05:31:16.297Z,95.69
2018-09-03T05:33:49.060Z,95.74
2018-09-03T05:36:18.574Z,95.58
2018-09-03T05:38:49.886Z,95.75
2018-09-03T05:41:20.040Z,95.60
2018-09-03T05:43:49.527Z,94.84
2018-09-03T05:46:18.981Z,95.45
2018-09-03T05:48:48.421Z,94.95
2018-09-03T05:51:18.259Z,94.58
2018-09-03T05:53:47.970Z,94.30
2018-09-03T05:56:17.469Z,93.87
2018-09-03T05:58:47.230Z,94.08
2018-09-03T06:01:16.689Z,93.55
2018-09-03T06:03:46.717Z,93.13
2018-09-03T06:06:16.410Z,92.83
2018-09-03T06:08:45.929Z,93.25
2018-09-03T06:11:15.999Z,91.82
2018-09-03T06:13:46.501Z,92.81
2018-09-03T06:16:16.120Z,92.38
2018-09-03T06:18:46.188Z,91.86
2018-09-03T06:21:15.664Z,91.43
2018-09-03T06:23:45.290Z,90.39
2018-09-03T06:26:15.272Z,91.35
2018-09-03T06:28:45.802Z,91.59
2018-09-03T06:31:16.151Z,91.05
2018-09-03T06:33:45.603Z,91.39
2018-09-03T06:36:16.429Z,91.17
2018-09-03T06:38:49.341Z,91.93
2018-09-03T06:41:19.713Z,90.76
2018-09-03T06:43:49.385Z,91.27
2018-09-03T06:46:20.189Z,92.34
2018-09-03T06:48:50.004Z,91.47
2018-09-03T06:51:19.513Z,91.74
2018-09-03T06:53:49.516Z,91.96
2018-09-03T06:56:19.490Z,91.68
2018-09-03T06:58:48.957Z,91.93
2018-09-03T07:01:18.441Z,91.94
2018-09-03T07:03:47.970Z,91.97
2018-09-03T07:06:17.662Z,91.42
2018-09-03T07:08:47.709Z,91.18
2018-09-03T07:11:17.801Z,89.94
2018-09-03T07:13:47.318Z,90.26
2018-09-03T07:16:16.947Z,89.90
2018-09-03T07:18:47.487Z,90.14
2018-09-03T07:21:17.204Z,90.52
2018-09-03T07:23:46.841Z,89.47
2018-09-03T07:26:16.747Z,89.24
2018-09-03T07:28:46.286Z,89.55
2018-09-03T07:31:16.050Z,88.63
2018-09-03T07:33:45.720Z,89.81
2018-09-03T07:36:15.330Z,89.39
2018-09-03T07:38:44.840Z,89.95
2018-09-03T07:41:14.291Z,89.64
2018-09-03T07:43:44.069Z,90.25
2018-09-03T07:46:13.548Z,89.97
2018-09-03T07:48:43.407Z,90.15
2018-09-03T07:51:13.005Z,89.92
2018-09-03T07:53:42.701Z,89.97
2018-09-03T07:56:12.233Z,89.91
2018-09-03T07:58:41.681Z,90.27
2018-09-03T08:01:11.361Z,90.83
2018-09-03T08:03:40.842Z,91.11
2018-09-03T08:06:10.294Z,90.53
2018-09-03T08:08:40.127Z,90.94
2018-09-03T08:11:09.802Z,89.63
2018-09-03T08:13:40.957Z,89.76
2018-09-03T08:16:12.192Z,89.21
2018-09-03T08:18:43.738Z,89.68
2018-09-03T08:21:13.481Z,90.43
2018-09-03T08:23:43.044Z,91.97
2018-09-03T08:26:12.720Z,91.07
2018-09-03T08:28:42.254Z,92.46
2018-09-03T08:31:13.253Z,93.71
2018-09-03T08:33:43.192Z,94.44
2018-09-03T08:36:13.263Z,94.40
2018-09-03T08:38:43.318Z,94.38
2018-09-03T08:41:13.749Z,94.49
2018-09-03T08:43:43.238Z,93.97
2018-09-03T08:46:13.338Z,94.13
2018-09-03T08:48:42.760Z,94.28
2018-09-03T08:51:12.333Z,94.28
2018-09-03T08:53:42.164Z,94.56
2018-09-03T08:56:12.183Z,94.62
2018-09-03T08:58:41.899Z,94.42
2018-09-03T09:01:12.790Z,91.85
2018-09-03T09:03:43.488Z,90.54
2018-09-03T09:06:14.909Z,91.23
2018-09-03T09:08:44.330Z,87.60
2018-09-03T09:11:13.873Z,87.98
2018-09-03T09:13:43.395Z,86.72
2018-09-03T09:16:12.792Z,85.29
2018-09-03T09:18:42.516Z,84.72
2018-09-03T09:21:12.618Z,86.10
2018-09-03T09:23:42.077Z,84.40
2018-09-03T09:26:12.317Z,84.57
2018-09-03T09:28:41.825Z,85.05
2018-09-03T09:31:11.412Z,84.43
2018-09-03T09:33:40.924Z,84.05
2018-09-03T09:36:12.295Z,84.74
2018-09-03T09:38:42.151Z,83.61
2018-09-03T09:41:12.401Z,84.27
2018-09-03T09:43:41.866Z,83.97
2018-09-03T09:46:11.322Z,81.29
2018-09-03T09:48:40.955Z,81.91
2018-09-03T09:51:10.421Z,82.62
2018-09-03T09:53:40.114Z,82.32
2018-09-03T09:56:09.570Z,82.47
2018-09-03T09:58:39.427Z,82.74
2018-09-03T10:01:14.254Z,81.69
2018-09-03T10:03:43.862Z,81.45
2018-09-03T10:06:13.385Z,81.21
2018-09-03T10:08:43.740Z,79.56
2018-09-03T10:11:13.408Z,78.84
2018-09-03T10:13:42.932Z,78.57
2018-09-03T10:16:12.497Z,80.12
2018-09-03T10:18:42.389Z,79.99
2018-09-03T10:21:12.130Z,78.47
2018-09-03T10:23:41.595Z,78.51
2018-09-03T10:26:11.210Z,77.21
2018-09-03T10:28:41.395Z,76.19
2018-09-03T10:31:10.842Z,74.96
2018-09-03T10:33:40.270Z,74.48
2018-09-03T10:36:10.842Z,75.81
2018-09-03T10:38:40.293Z,75.37
2018-09-03T10:41:10.214Z,74.61
2018-09-03T10:43:39.974Z,73.23
2018-09-03T10:46:09.702Z,74.04
2018-09-03T10:48:39.476Z,73.64
2018-09-03T10:51:09.476Z,72.96
2018-09-03T10:53:39.389Z,70.56
2018-09-03T10:56:08.989Z,73.19
2018-09-03T10:58:38.955Z,71.81
2018-09-03T11:01:08.519Z,71.83
2018-09-03T11:03:38.094Z,71.25
2018-09-03T11:06:08.077Z,71.34
2018-09-03T11:08:38.707Z,70.97
2018-09-03T11:11:08.420Z,70.91
2018-09-03T11:13:37.934Z,71.17
2018-09-03T11:16:07.740Z,70.17
2018-09-03T11:18:37.290Z,70.08
2018-09-03T11:21:08.607Z,68.73
2018-09-03T11:23:38.126Z,70.31
2018-09-03T11:26:09.329Z,69.81
2018-09-03T11:28:39.306Z,68.03
2018-09-03T11:31:08.751Z,68.51
2018-09-03T11:33:41.008Z,68.03
2018-09-03T11:36:11.949Z,67.85
2018-09-03T11:38:42.128Z,67.27
2018-09-03T11:41:11.605Z,67.20
2018-09-03T11:43:41.056Z,67.45
2018-09-03T11:46:11.513Z,67.59
2018-09-03T11:48:41.238Z,66.84
2018-09-03T11:51:10.798Z,67.20
2018-09-03T11:53:40.825Z,66.29
2018-09-03T11:56:10.402Z,66.29
2018-09-03T11:58:40.016Z,65.24
2018-09-03T12:01:09.641Z,65.73
2018-09-03T12:03:39.161Z,64.14
2018-09-03T12:06:10.134Z,64.52
2018-09-03T12:08:39.727Z,63.74
2018-09-03T12:11:09.632Z,63.77
2018-09-03T12:13:40.275Z,64.24
2018-09-03T12:16:13.628Z,63.89
2018-09-03T12:18:43.941Z,63.79
2018-09-03T12:21:15.079Z,62.48
2018-09-03T12:23:44.905Z,63.02
2018-09-03T12:26:16.070Z,62.27
2018-09-03T12:28:45.489Z,60.90
2018-09-03T12:31:15.038Z,59.73
2018-09-03T12:33:45.205Z,56.85
2018-09-03T12:36:14.701Z,53.39
2018-09-03T12:38:44.462Z,51.34
2018-09-03T12:41:14.917Z,52.43
2018-09-03T12:43:44.504Z,49.15
2018-09-03T12:46:14.337Z,47.54
2018-09-03T12:48:44.300Z,45.91
2018-09-03T12:51:13.911Z,47.04
2018-09-03T12:53:43.431Z,45.67
2018-09-03T12:56:13.102Z,43.31
2018-09-03T12:58:43.338Z,43.44
2018-09-03T13:01:13.930Z,43.73
2018-09-03T13:03:43.488Z,44.63
2018-09-03T13:06:13.132Z,43.05
2018-09-03T13:08:42.615Z,42.06
2018-09-03T13:11:12.046Z,43.60
2018-09-03T13:13:41.615Z,42.56
2018-09-03T13:16:12.892Z,41.55
2018-09-03T13:18:43.117Z,41.84
2018-09-03T13:21:13.370Z,42.39
2018-09-03T13:23:43.485Z,40.85
2018-09-03T13:26:14.932Z,41.10
2018-09-03T13:28:44.602Z,40.07
2018-09-03T13:31:14.035Z,42.11
2018-09-03T13:33:43.560Z,42.24
2018-09-03T13:36:13.133Z,42.19
2018-09-03T13:38:42.545Z,42.63
2018-09-03T13:41:12.044Z,42.38
2018-09-03T13:43:41.608Z,43.93
2018-09-03T13:46:11.519Z,42.56
2018-09-03T13:48:42.096Z,43.02
2018-09-03T13:51:15.062Z,42.24
2018-09-03T13:53:44.534Z,41.79
2018-09-03T13:56:14.245Z,42.82
2018-09-03T13:58:43.779Z,43.42
2018-09-03T14:01:13.248Z,41.61
2018-09-03T14:03:43.180Z,42.20
2018-09-03T14:06:18.358Z,43.21
2018-09-03T14:08:47.970Z,42.67
2018-09-03T14:11:17.640Z,41.81
2018-09-03T14:13:48.307Z,41.23
2018-09-03T14:16:19.240Z,43.58
2018-09-03T14:18:49.660Z,42.75
2018-09-03T14:21:19.237Z,42.15
2018-09-03T14:23:48.750Z,41.72
2018-09-03T14:26:19.711Z,43.35
2018-09-03T14:28:49.939Z,42.70
2018-09-03T14:31:21.583Z,43.01
2018-09-03T14:33:51.632Z,42.63
2018-09-03T14:36:21.326Z,43.92
2018-09-03T14:38:51.419Z,42.76
2018-09-03T14:41:20.912Z,42.75
2018-09-03T14:43:50.425Z,43.10
2018-09-03T14:46:20.296Z,42.55
2018-09-03T14:48:49.828Z,42.76
2018-09-03T14:51:19.982Z,43.29
2018-09-03T14:53:55.210Z,42.53
2018-09-03T14:56:26.062Z,43.49
2018-09-03T14:58:55.717Z,44.95
2018-09-03T15:01:25.252Z,44.92
2018-09-03T15:03:54.804Z,44.94
2018-09-03T15:06:24.282Z,44.76
2018-09-03T15:08:53.799Z,45.51
2018-09-03T15:11:23.399Z,43.63
2018-09-03T15:13:58.584Z,43.32
2018-09-03T15:16:34.144Z,43.64
2018-09-03T15:19:04.887Z,44.96
2018-09-03T15:21:35.871Z,43.93
2018-09-03T15:24:05.811Z,43.17
2018-09-03T15:26:38.365Z,44.49
2018-09-03T15:29:07.892Z,44.57
2018-09-03T15:31:37.625Z,46.05
2018-09-03T15:34:08.321Z,46.79
2018-09-03T15:36:38.330Z,47.35
2018-09-03T15:39:11.400Z,45.72
2018-09-03T15:41:41.106Z,46.32
2018-09-03T15:44:11.028Z,46.68
2018-09-03T15:46:40.944Z,47.38
2018-09-03T15:49:10.550Z,46.66
2018-09-03T15:51:40.013Z,46.59
2018-09-03T15:54:09.680Z,46.57
2018-09-03T15:56:39.101Z,47.38
2018-09-03T15:59:08.641Z,47.06
2018-09-03T16:01:38.188Z,48.21
2018-09-03T16:04:07.696Z,47.76
2018-09-03T16:06:37.128Z,48.29
2018-09-03T16:09:10.195Z,48.60
2018-09-03T16:11:39.834Z,49.91
2018-09-03T16:14:09.895Z,49.82
2018-09-03T16:16:39.426Z,49.55
2018-09-03T16:19:09.061Z,50.28
2018-09-03T16:21:39.361Z,51.37
2018-09-03T16:24:08.822Z,50.64
2018-09-03T16:26:38.813Z,51.83
2018-09-03T16:29:08.513Z,51.71
2018-09-03T16:31:37.991Z,49.99
2018-09-03T16:34:07.501Z,52.05
2018-09-03T16:36:37.020Z,51.14
2018-09-03T16:39:07.466Z,52.23
2018-09-03T16:41:38.779Z,53.14
2018-09-03T16:44:08.731Z,54.23
2018-09-03T16:46:38.219Z,53.39
2018-09-03T16:49:07.723Z,54.80
2018-09-03T16:51:38.268Z,54.80
2018-09-03T16:54:07.789Z,55.20
2018-09-03T16:56:38.403Z,56.54
2018-09-03T16:59:08.058Z,58.61
2018-09-03T17:01:38.274Z,60.78
2018-09-03T17:04:08.392Z,61.48
2018-09-03T17:06:38.374Z,62.43
2018-09-03T17:09:08.325Z,63.25
2018-09-03T17:11:38.441Z,64.03
2018-09-03T17:14:08.191Z,65.08
2018-09-03T17:16:37.699Z,65.63
2018-09-03T17:19:07.580Z,66.92
2018-09-03T17:21:37.249Z,66.41
2018-09-03T17:24:06.888Z,67.05
2018-09-03T17:26:37.730Z,68.20
2018-09-03T17:29:07.202Z,68.16
2018-09-03T17:31:37.581Z,68.90
2018-09-03T17:34:07.155Z,68.98
2018-09-03T17:36:36.870Z,69.95
2018-09-03T17:39:08.164Z,72.10
2018-09-03T17:41:37.973Z,71.26
2018-09-03T17:44:07.520Z,72.55
2018-09-03T17:46:39.489Z,72.19
2018-09-03T17:49:08.996Z,73.52
2018-09-03T17:51:38.922Z,73.54
2018-09-03T17:54:10.117Z,73.89
2018-09-03T17:56:42.971Z,74.19
2018-09-03T17:59:12.490Z,73.95
2018-09-03T18:01:43.705Z,74.33
2018-09-03T18:04:13.772Z,75.20
2018-09-03T18:06:43.317Z,75.52
2018-09-03T18:09:12.866Z,74.82
2018-09-03T18:11:43.373Z,76.37
2018-09-03T18:14:12.869Z,76.00
2018-09-03T18:16:42.365Z,76.85
2018-09-03T18:19:11.942Z,77.85
2018-09-03T18:21:42.487Z,77.56
2018-09-03T18:24:12.367Z,78.14
2018-09-03T18:26:41.998Z,76.88
2018-09-03T18:29:12.010Z,78.23
2018-09-03T18:31:41.976Z,78.65
2018-09-03T18:34:11.733Z,78.59
2018-09-03T18:36:41.941Z,78.83
2018-09-03T18:39:11.717Z,78.50
2018-09-03T18:41:41.299Z,78.84
2018-09-03T18:44:11.290Z,79.33
2018-09-03T18:46:41.599Z,79.97
2018-09-03T18:49:11.583Z,79.51
2018-09-03T18:51:42.169Z,80.22
2018-09-03T18:54:12.602Z,80.86
2018-09-03T18:56:42.193Z,80.51
2018-09-03T18:59:11.968Z,81.00
2018-09-03T19:01:41.392Z,81.12
2018-09-03T19:04:11.013Z,81.79
2018-09-03T19:06:40.573Z,81.83
2018-09-03T19:09:10.680Z,82.43
2018-09-03T19:11:40.223Z,82.80
2018-09-03T19:14:09.809Z,82.75
2018-09-03T19:16:39.355Z,83.00
2018-09-03T19:19:09.625Z,82.94
2018-09-03T19:21:39.180Z,83.48
2018-09-03T19:24:09.134Z,83.23
2018-09-03T19:26:38.650Z,83.11
2018-09-03T19:29:08.305Z,83.17
2018-09-03T19:31:37.970Z,83.92
2018-09-03T19:34:07.741Z,83.93
2018-09-03T19:36:37.235Z,84.01
2018-09-03T19:39:07.286Z,84.92
2018-09-03T19:41:36.796Z,85.45
2018-09-03T19:44:06.302Z,85.27
2018-09-03T19:46:36.301Z,84.79
2018-09-03T19:49:05.745Z,85.41
2018-09-03T19:51:35.401Z,85.43
2018-09-03T19:54:05.034Z,85.31
2018-09-03T19:56:34.564Z,86.12
2018-09-03T19:59:04.177Z,85.91
2018-09-03T20:01:33.635Z,85.19
2018-09-03T20:04:03.780Z,86.12
2018-09-03T20:06:33.741Z,86.53
2018-09-03T20:09:03.380Z,86.06
2018-09-03T20:11:32.912Z,86.41
2018-09-03T20:14:02.489Z,85.73
2018-09-03T20:16:32.127Z,86.12
2018-09-03T20:19:02.252Z,86.21
2018-09-03T20:21:31.703Z,85.70
2018-09-03T20:24:01.288Z,85.76
2018-09-03T20:26:30.844Z,86.74
2018-09-03T20:29:00.432Z,86.57
2018-09-03T20:31:29.999Z,86.97
2018-09-03T20:33:59.505Z,86.85
2018-09-03T20:36:29.062Z,86.70
2018-09-03T20:38:58.479Z,86.84
2018-09-03T20:41:27.964Z,87.10
2018-09-03T20:43:57.487Z,86.91
2018-09-03T20:46:27.063Z,87.62
2018-09-03T20:48:56.555Z,87.39
2018-09-03T20:51:26.055Z,87.29
2018-09-03T20:53:55.637Z,88.17
2018-09-03T20:56:25.357Z,87.50
2018-09-03T20:58:54.952Z,88.38
2018-09-03T21:01:24.570Z,87.58
2018-09-03T21:03:54.084Z,87.59
2018-09-03T21:06:23.565Z,88.02
2018-09-03T21:08:53.008Z,88.41
2018-09-03T21:11:22.623Z,88.39
2018-09-03T21:13:52.118Z,87.91
2018-09-03T21:16:21.580Z,88.55
2018-09-03T21:18:51.033Z,88.88
2018-09-03T21:21:20.544Z,88.86
2018-09-03T21:23:50.064Z,89.28
2018-09-03T21:26:19.517Z,89.00
2018-09-03T21:28:48.948Z,89.26
2018-09-03T21:31:18.419Z,88.59
2018-09-03T21:33:48.815Z,88.95
2018-09-03T21:36:18.345Z,88.41
2018-09-03T21:38:47.787Z,88.44
2018-09-03T21:41:17.302Z,88.95
2018-09-03T21:43:46.795Z,88.78
2018-09-03T21:46:16.241Z,88.23
2018-09-03T21:48:45.686Z,89.23
2018-09-03T21:51:15.191Z,89.27
2018-09-03T21:53:44.605Z,89.34
2018-09-03T21:56:14.066Z,89.30
2018-09-03T21:58:43.561Z,88.90
2018-09-03T22:01:13.042Z,89.60
2018-09-03T22:03:42.512Z,89.11
2018-09-03T22:06:12.003Z,88.63
2018-09-03T22:08:41.494Z,87.39
2018-09-03T22:11:10.919Z,88.59
2018-09-03T22:13:40.434Z,86.52
2018-09-03T22:16:09.898Z,87.25
2018-09-03T22:18:40.149Z,86.50
2018-09-03T22:21:09.729Z,86.58
2018-09-03T22:23:39.383Z,85.71
2018-09-03T22:26:08.918Z,86.56
2018-09-03T22:28:38.336Z,85.34
2018-09-03T22:31:07.805Z,85.07
2018-09-03T22:33:37.246Z,85.62
2018-09-03T22:36:07.034Z,85.35
2018-09-03T22:38:36.539Z,84.89
2018-09-03T22:41:07.281Z,86.02
2018-09-03T22:43:36.708Z,85.56
2018-09-03T22:46:06.188Z,84.96
2018-09-03T22:48:35.695Z,85.16
2018-09-03T22:51:05.134Z,85.23
2018-09-03T22:53:34.756Z,86.46
2018-09-03T22:56:04.239Z,86.19
2018-09-03T22:58:33.696Z,86.07
2018-09-03T23:01:03.149Z,85.69
2018-09-03T23:03:32.590Z,85.62
2018-09-03T23:06:02.041Z,86.45
2018-09-03T23:08:31.499Z,85.14
2018-09-03T23:11:01.028Z,85.90
2018-09-03T23:13:30.461Z,86.08
2018-09-03T23:16:00.013Z,87.45
2018-09-03T23:18:29.502Z,86.83
2018-09-03T23:20:58.964Z,86.81
2018-09-03T23:23:28.431Z,87.45
2018-09-03T23:25:57.934Z,87.34
2018-09-03T23:28:27.372Z,87.86
2018-09-03T23:30:56.868Z,87.92
2018-09-03T23:33:26.316Z,88.01
2018-09-03T23:35:55.806Z,87.37
2018-09-03T23:38:25.269Z,87.67
2018-09-03T23:40:54.721Z,89.24
2018-09-03T23:43:24.188Z,88.37
2018-09-03T23:45:53.657Z,89.11
2018-09-03T23:48:23.277Z,89.13
2018-09-03T23:50:52.748Z,89.33
2018-09-03T23:53:22.205Z,88.81
2018-09-03T23:55:51.722Z,90.04
2018-09-03T23:58:21.170Z,90.18
